Time;durP1;ratioP1;P1;durP2;ratioP2;P2;SDS_P1;SDS_P2;PMS_P1;PMS_P2;Temp;Humidity;BMP_temperature;BMP_pressure;BME280_temperature;BME280_humidity;BME280_pressure;Samples;Min_cycle;Max_cycle;Signal;HPM_P1;HPM_P2
2023/04/10 00:01:00;;;;;;;4.70;2.67;;;;;;;5.79;79.60;96095.75;4371708;32;20226;-54
2023/04/10 00:03:26;;;;;;;2.73;2.17;;;;;;;5.85;79.21;96098.19;4373306;32;20180;-52
2023/04/10 00:05:53;;;;;;;1.70;1.60;;;;;;;6.13;77.95;96102.53;4387801;32;20363;-51
2023/04/10 00:08:22;;;;;;;2.20;2.03;;;;;;;5.74;78.95;96100.94;4385806;32;20291;-53
2023/04/10 00:10:47;;;;;;;2.40;2.27;;;;;;;5.78;79.44;96104.69;4388295;32;20298;-51
2023/04/10 00:13:13;;;;;;;2.60;2.40;;;;;;;5.73;79.12;96109.88;4378512;32;20324;-55
2023/04/10 00:15:39;;;;;;;2.30;2.10;;;;;;;5.74;79.13;96096.47;4381517;32;20207;-50
2023/04/10 00:18:04;;;;;;;1.40;1.40;;;;;;;5.69;79.50;96093.75;4386383;32;20409;-49
2023/04/10 00:20:30;;;;;;;1.50;1.47;;;;;;;5.91;78.62;96098.28;4375524;32;20192;-49
2023/04/10 00:22:55;;;;;;;2.17;2.07;;;;;;;5.74;79.00;96093.03;4388039;32;20207;-52
2023/04/10 00:25:21;;;;;;;1.80;1.70;;;;;;;5.81;78.72;96091.84;4366788;32;20184;-52
2023/04/10 00:27:47;;;;;;;1.40;1.40;;;;;;;5.82;78.58;96092.59;4375562;32;20193;-49
2023/04/10 00:30:13;;;;;;;2.20;2.10;;;;;;;5.80;78.76;96092.88;4367698;32;20330;-51
2023/04/10 00:32:38;;;;;;;2.53;2.37;;;;;;;5.88;78.12;96086.38;4382368;32;20204;-54
2023/04/10 00:35:04;;;;;;;2.10;2.00;;;;;;;5.80;78.02;96076.28;4380364;32;20260;-52
2023/04/10 00:37:29;;;;;;;1.67;1.67;;;;;;;5.67;78.44;96079.25;4383899;32;20214;-53
2023/04/10 00:39:55;;;;;;;1.50;1.43;;;;;;;5.91;77.96;96080.66;4379585;32;20184;-54
2023/04/10 00:42:20;;;;;;;2.50;2.40;;;;;;;5.86;77.76;96073.44;4381081;32;20272;-54
2023/04/10 00:44:45;;;;;;;2.30;2.20;;;;;;;5.64;77.97;96074.47;4387029;32;20188;-54
2023/04/10 00:47:12;;;;;;;1.67;1.63;;;;;;;5.76;77.77;96072.53;4369950;32;20247;-51
2023/04/10 00:49:37;;;;;;;1.67;1.67;;;;;;;5.66;78.11;96069.75;4370139;32;20226;-53
2023/04/10 00:52:02;;;;;;;2.00;1.77;;;;;;;5.55;79.11;96074.09;4388922;32;20367;-53
2023/04/10 00:54:29;;;;;;;2.27;2.17;;;;;;;5.45;78.81;96077.38;4392547;32;20183;-52
2023/04/10 00:56:56;;;;;;;1.60;1.50;;;;;;;5.53;78.63;96069.09;4382321;32;20226;-51
2023/04/10 00:59:21;;;;;;;1.77;1.67;;;;;;;5.60;78.61;96060.22;4376962;32;20298;-54
2023/04/10 01:01:47;;;;;;;2.13;2.03;;;;;;;5.68;77.95;96062.44;4391389;32;20275;-52
2023/04/10 01:04:13;;;;;;;2.53;2.33;;;;;;;5.51;78.55;96065.91;4386957;32;20207;-53
2023/04/10 01:06:57;;;;;;;2.37;2.17;;;;;;;5.36;79.37;96060.44;4391941;32;20200;-53
2023/04/10 01:09:33;;;;;;;1.73;1.63;;;;;;;5.50;78.46;96068.78;4384073;32;20321;-53
2023/04/10 01:12:14;;;;;;;2.00;1.90;;;;;;;5.35;79.15;96056.22;4379687;32;20272;-53
2023/04/10 01:14:56;;;;;;;2.17;2.07;;;;;;;5.47;78.75;96059.53;4384600;32;20293;-53
2023/04/10 01:17:30;;;;;;;2.17;2.07;;;;;;;5.41;78.92;96064.94;4381878;32;20292;-54
2023/04/10 01:20:09;;;;;;;2.63;2.40;;;;;;;5.37;79.03;96063.84;4389299;32;20287;-51
2023/04/10 01:22:40;;;;;;;2.40;2.20;;;;;;;5.31;79.34;96070.88;4383494;32;20324;-49
2023/04/10 01:25:33;;;;;;;2.27;1.90;;;;;;;5.35;79.60;96073.81;4390026;32;20310;-52
2023/04/10 01:28:16;;;;;;;1.47;1.47;;;;;;;5.32;79.36;96067.22;4383123;32;20328;-52
2023/04/10 01:30:43;;;;;;;2.87;2.67;;;;;;;5.18;79.84;96068.59;4387468;32;20415;-51
2023/04/10 01:33:12;;;;;;;2.07;1.97;;;;;;;5.08;80.15;96065.78;4383660;32;20296;-52
2023/04/10 01:35:41;;;;;;;2.00;1.90;;;;;;;5.39;79.16;96061.78;4389329;32;20279;-54
2023/04/10 01:38:08;;;;;;;2.13;2.03;;;;;;;5.40;78.77;96058.88;4384875;32;20306;-52
2023/04/10 01:40:37;;;;;;;2.33;2.17;;;;;;;5.54;78.13;96054.09;4379564;32;20280;-53
2023/04/10 01:43:06;;;;;;;2.20;2.10;;;;;;;5.16;79.22;96058.31;4367981;32;20297;-54
2023/04/10 01:45:32;;;;;;;3.03;1.83;;;;;;;5.35;78.28;96053.56;4381975;32;20307;-50
2023/04/10 01:47:58;;;;;;;2.20;2.00;;;;;;;5.23;78.58;96052.84;4382480;32;20312;-48
2023/04/10 01:50:27;;;;;;;3.47;2.23;;;;;;;5.19;78.52;96046.50;4388190;32;20202;-50
2023/04/10 01:52:52;;;;;;;1.97;1.87;;;;;;;5.35;78.00;96044.87;4388062;32;20304;-51
2023/04/10 01:55:19;;;;;;;0.97;0.97;;;;;;;5.24;78.77;96035.25;4375197;32;20357;-53
2023/04/10 01:57:47;;;;;;;2.07;1.97;;;;;;;5.22;78.91;96046.00;4378666;32;20243;-53
2023/04/10 02:00:16;;;;;;;1.50;1.40;;;;;;;5.08;79.20;96039.50;4367884;32;20334;-49
2023/04/10 02:02:42;;;;;;;1.13;1.13;;;;;;;5.06;79.74;96036.31;4381478;32;20299;-51
2023/04/10 02:05:09;;;;;;;2.53;2.33;;;;;;;5.09;79.51;96031.38;4384188;32;20408;-50
2023/04/10 02:07:38;;;;;;;1.80;1.70;;;;;;;5.14;79.24;96033.28;4384748;32;20344;-52
2023/04/10 02:10:03;;;;;;;1.60;1.60;;;;;;;5.16;78.74;96033.84;4387055;32;20288;-51
2023/04/10 02:12:35;;;;;;;1.87;1.77;;;;;;;5.15;78.71;96033.03;4384015;32;20279;-48
2023/04/10 02:15:04;;;;;;;1.27;1.27;;;;;;;5.16;78.72;96036.47;4372602;32;20181;-60
2023/04/10 02:17:31;;;;;;;1.63;1.53;;;;;;;5.11;78.74;96034.56;4376950;32;20268;-50
2023/04/10 02:19:57;;;;;;;1.90;1.80;;;;;;;5.00;79.18;96034.62;4388442;32;20276;-50
2023/04/10 02:22:24;;;;;;;1.50;1.43;;;;;;;5.04;78.82;96035.75;4386597;32;20333;-54
2023/04/10 02:24:50;;;;;;;1.47;1.43;;;;;;;5.01;79.27;96036.22;4384617;32;20280;-53
2023/04/10 02:27:26;;;;;;;4.10;2.30;;;;;;;4.89;79.65;96032.91;4385612;32;20294;-51
2023/04/10 02:29:51;;;;;;;1.53;1.47;;;;;;;4.87;79.63;96034.97;4371215;32;20298;-53
2023/04/10 02:32:18;;;;;;;1.10;1.10;;;;;;;4.88;79.36;96039.19;4384025;32;20283;-49
2023/04/10 02:34:43;;;;;;;1.53;1.43;;;;;;;4.82;79.48;96030.41;4381580;32;20195;-52
2023/04/10 02:37:08;;;;;;;1.63;1.53;;;;;;;4.71;79.99;96036.56;4381443;32;20355;-51
2023/04/10 02:39:34;;;;;;;1.43;1.33;;;;;;;4.73;80.24;96037.91;4369314;32;20224;-50
2023/04/10 02:42:00;;;;;;;1.43;1.40;;;;;;;4.49;80.67;96042.50;4382707;32;20185;-51
2023/04/10 02:44:25;;;;;;;1.73;1.63;;;;;;;4.59;80.51;96036.63;4381633;32;20192;-52
2023/04/10 02:46:51;;;;;;;1.33;1.33;;;;;;;4.59;80.30;96036.63;4377871;32;20257;-49
2023/04/10 02:49:16;;;;;;;1.20;1.20;;;;;;;4.47;80.82;96036.69;4376816;32;20180;-51
2023/04/10 02:51:41;;;;;;;1.90;1.33;;;;;;;4.52;80.44;96037.81;4383660;32;20188;-52
2023/04/10 02:54:07;;;;;;;1.87;1.83;;;;;;;4.42;80.76;96038.44;4368238;32;20185;-52
2023/04/10 02:56:33;;;;;;;1.30;1.30;;;;;;;4.33;81.10;96042.50;4383226;32;20184;-52
2023/04/10 02:58:59;;;;;;;1.07;1.07;;;;;;;4.33;81.10;96042.50;4365701;32;20251;-53
2023/04/10 03:01:26;;;;;;;1.60;1.50;;;;;;;4.29;81.55;96042.16;4382054;32;20277;-47
2023/04/10 03:03:51;;;;;;;2.23;2.13;;;;;;;4.36;81.04;96039.38;4389272;32;20279;-53
2023/04/10 03:06:16;;;;;;;1.00;1.00;;;;;;;4.39;80.92;96038.91;4384986;32;20303;-53
2023/04/10 03:08:42;;;;;;;1.40;1.40;;;;;;;4.51;80.68;96039.66;4363505;32;20192;-54
2023/04/10 03:11:08;;;;;;;2.77;2.57;;;;;;;4.42;80.62;96038.44;4377147;32;20180;-51
2023/04/10 03:13:33;;;;;;;1.67;1.57;;;;;;;4.45;80.41;96041.38;4376483;32;20237;-53
2023/04/10 03:15:58;;;;;;;1.20;1.20;;;;;;;4.42;80.63;96031.34;4374756;32;20209;-54
2023/04/10 03:18:24;;;;;;;1.97;1.87;;;;;;;4.62;79.86;96036.16;4373679;32;20189;-54
2023/04/10 03:20:51;;;;;;;1.93;1.83;;;;;;;4.29;80.39;96031.66;4373458;32;20200;-52
2023/04/10 03:23:16;;;;;;;1.00;1.00;;;;;;;4.42;80.43;96033.97;4379072;32;20192;-53
2023/04/10 03:25:42;;;;;;;2.13;1.90;;;;;;;4.55;79.95;96030.25;4376625;32;20284;-52
2023/04/10 03:28:07;;;;;;;1.37;1.37;;;;;;;4.47;79.89;96033.28;4367419;32;20201;-53
2023/04/10 03:30:35;;;;;;;2.50;1.90;;;;;;;4.46;80.42;96029.03;4378910;32;20192;-52
2023/04/10 03:33:01;;;;;;;1.63;1.53;;;;;;;4.43;80.43;96032.16;4382934;32;20211;-54
2023/04/10 03:35:26;;;;;;;1.13;1.13;;;;;;;4.49;79.77;96023.31;4375583;32;20284;-52
2023/04/10 03:37:51;;;;;;;1.63;1.63;;;;;;;4.55;79.53;96025.00;4387680;32;20215;-51
2023/04/10 03:40:17;;;;;;;1.63;1.57;;;;;;;4.69;79.02;96026.28;4380342;32;20211;-51
2023/04/10 03:42:42;;;;;;;1.30;1.20;;;;;;;4.83;78.58;96030.19;4387446;32;20199;-52
2023/04/10 03:45:08;;;;;;;1.70;1.60;;;;;;;4.53;79.79;96027.06;4386644;32;20193;-50
2023/04/10 03:47:34;;;;;;;1.97;1.87;;;;;;;4.66;79.43;96023.34;4375415;32;20203;-51
2023/04/10 03:49:59;;;;;;;1.20;1.20;;;;;;;4.82;78.54;96033.84;4387472;32;20255;-53
2023/04/10 03:52:26;;;;;;;1.03;1.03;;;;;;;4.79;78.90;96026.44;4376449;32;20211;-50
2023/04/10 03:54:55;;;;;;;2.10;2.00;;;;;;;4.78;78.82;96039.84;4382029;32;20181;-51
2023/04/10 03:57:20;;;;;;;4.53;1.83;;;;;;;4.62;79.13;96037.97;4385057;32;20332;-53
2023/04/10 03:59:46;;;;;;;1.87;1.77;;;;;;;4.48;80.40;96038.28;4378724;32;20284;-51
2023/04/10 04:02:12;;;;;;;2.07;1.97;;;;;;;4.33;80.80;96029.34;4389139;32;20206;-52
2023/04/10 04:04:38;;;;;;;1.80;1.67;;;;;;;4.43;80.43;96042.66;4365423;32;20281;-50
2023/04/10 04:07:03;;;;;;;1.30;1.30;;;;;;;4.40;80.78;96043.91;4385111;32;20192;-49
2023/04/10 04:09:29;;;;;;;1.97;1.73;;;;;;;4.45;80.43;96038.75;4383964;32;20252;-53
2023/04/10 04:11:55;;;;;;;1.73;1.63;;;;;;;4.43;80.59;96042.66;4382190;32;20188;-52
2023/04/10 04:14:20;;;;;;;1.00;1.00;;;;;;;4.33;80.66;96047.75;4390974;32;20193;-51
2023/04/10 04:16:46;;;;;;;2.17;2.00;;;;;;;4.39;80.74;96038.91;4389437;32;20302;-54
2023/04/10 04:19:11;;;;;;;1.83;1.73;;;;;;;4.31;80.94;96029.59;4387347;32;20231;-51
2023/04/10 04:21:36;;;;;;;2.00;1.90;;;;;;;4.23;81.36;96037.03;4389367;32;20208;-56
2023/04/10 04:24:02;;;;;;;2.03;1.80;;;;;;;4.09;82.08;96037.34;4369393;32;20192;-51
2023/04/10 04:26:27;;;;;;;2.07;1.97;;;;;;;4.19;81.54;96035.91;4374665;32;20217;-51
2023/04/10 04:28:52;;;;;;;1.90;1.80;;;;;;;4.26;81.52;96031.31;4384335;32;20180;-53
2023/04/10 04:31:18;;;;;;;2.07;1.97;;;;;;;4.31;81.37;96028.78;4376553;32;20195;-50
2023/04/10 04:33:43;;;;;;;3.00;2.80;;;;;;;4.10;82.10;96033.69;4380057;32;20185;-51
2023/04/10 04:36:08;;;;;;;1.77;1.67;;;;;;;3.88;82.92;96035.34;4382448;32;20223;-52
2023/04/10 04:38:34;;;;;;;3.27;3.13;;;;;;;4.05;82.57;96040.66;4383956;32;20212;-53
2023/04/10 04:40:59;;;;;;;2.93;2.70;;;;;;;4.05;82.32;96044.06;4380346;32;20197;-53
2023/04/10 04:43:24;;;;;;;2.23;2.03;;;;;;;4.01;82.52;96042.16;4368167;32;20223;-52
2023/04/10 04:45:50;;;;;;;2.97;2.37;;;;;;;4.25;81.81;96048.91;4385169;32;20203;-53
2023/04/10 04:48:15;;;;;;;1.87;1.80;;;;;;;4.18;81.52;96056.12;4380944;32;20196;-52
2023/04/10 04:50:41;;;;;;;1.43;1.37;;;;;;;4.19;81.86;96051.66;4387563;32;20180;-52
2023/04/10 04:53:07;;;;;;;2.60;2.40;;;;;;;4.37;80.91;96049.62;4377499;32;20199;-53
2023/04/10 04:55:33;;;;;;;1.93;1.83;;;;;;;4.06;81.75;96056.16;4383321;32;20192;-53
2023/04/10 04:57:58;;;;;;;2.27;2.17;;;;;;;3.95;82.27;96054.38;4373626;32;20287;-51
2023/04/10 05:00:23;;;;;;;1.90;1.80;;;;;;;4.07;82.62;96052.53;4380311;32;20184;-49
2023/04/10 05:02:49;;;;;;;2.47;2.37;;;;;;;4.09;82.32;96057.53;4384820;32;20223;-53
2023/04/10 05:05:14;;;;;;;2.07;1.97;;;;;;;3.94;82.77;96057.25;4383072;32;20306;-53
2023/04/10 05:07:40;;;;;;;2.27;2.17;;;;;;;3.89;82.94;96051.91;4371200;32;20197;-51
2023/04/10 05:10:05;;;;;;;2.33;2.23;;;;;;;3.90;83.21;96053.50;4383339;32;20193;-50
2023/04/10 05:12:31;;;;;;;1.53;1.53;;;;;;;3.96;83.35;96055.97;4369386;32;20250;-50
2023/04/10 05:14:56;;;;;;;1.90;1.80;;;;;;;3.98;82.89;96063.59;4378973;32;20281;-50
2023/04/10 05:17:21;;;;;;;2.87;2.00;;;;;;;3.82;83.71;96062.50;4389306;32;20185;-53
2023/04/10 05:19:47;;;;;;;3.10;2.90;;;;;;;3.83;83.71;96061.47;4381125;32;20276;-50
2023/04/10 05:22:12;;;;;;;2.20;2.10;;;;;;;3.82;83.91;96059.87;4384534;32;20188;-52
2023/04/10 05:24:37;;;;;;;2.30;2.20;;;;;;;4.01;83.26;96056.06;4383398;32;20199;-48
2023/04/10 05:27:03;;;;;;;2.17;1.97;;;;;;;3.96;82.90;96053.34;4383259;32;20196;-50
2023/04/10 05:29:28;;;;;;;1.83;1.73;;;;;;;4.05;82.78;96051.94;4390509;32;20192;-50
2023/04/10 05:31:53;;;;;;;2.27;2.17;;;;;;;3.92;83.30;96049.59;4369352;32;20172;-52
2023/04/10 05:34:19;;;;;;;2.13;2.03;;;;;;;3.88;83.55;96048.47;4370014;32;20184;-50
2023/04/10 05:36:44;;;;;;;2.57;2.37;;;;;;;4.07;82.91;96049.09;4380233;32;20247;-49
2023/04/10 05:39:09;;;;;;;2.10;2.00;;;;;;;4.23;83.01;96048.34;4371532;32;20228;-52
2023/04/10 05:41:35;;;;;;;2.33;2.23;;;;;;;4.20;82.90;96056.69;4390237;32;20202;-50
2023/04/10 05:44:00;;;;;;;1.13;1.13;;;;;;;4.29;82.88;96057.12;4387516;32;20192;-49
2023/04/10 05:46:25;;;;;;;2.13;2.03;;;;;;;4.46;81.44;96057.94;4388345;32;20211;-50
2023/04/10 05:48:51;;;;;;;2.00;1.57;;;;;;;4.54;81.22;96054.16;4383507;32;20260;-53
2023/04/10 05:51:17;;;;;;;1.57;1.47;;;;;;;4.46;81.09;96064.00;4385680;32;20199;-52
2023/04/10 05:53:42;;;;;;;1.87;1.70;;;;;;;4.61;80.70;96060.03;4377251;32;20188;-52
2023/04/10 05:56:07;;;;;;;2.67;2.47;;;;;;;4.64;80.54;96060.34;4381748;32;20177;-52
2023/04/10 05:58:33;;;;;;;1.73;1.70;;;;;;;4.73;80.72;96074.72;4369852;32;20177;-52
2023/04/10 06:00:58;;;;;;;1.27;1.27;;;;;;;4.73;81.04;96073.91;4378599;32;20176;-52
2023/04/10 06:03:26;;;;;;;2.27;2.17;;;;;;;4.85;80.47;96077.25;4374042;32;20206;-50
2023/04/10 06:05:52;;;;;;;2.33;2.10;;;;;;;4.95;80.08;96072.19;4382657;32;20224;-51
2023/04/10 06:08:18;;;;;;;1.33;1.33;;;;;;;5.11;79.52;96075.84;4385359;32;20280;-50
2023/04/10 06:10:45;;;;;;;1.93;1.60;;;;;;;5.03;79.78;96078.84;4377480;32;20188;-54
2023/04/10 06:13:10;;;;;;;0.90;0.90;;;;;;;5.23;79.47;96084.41;4386526;32;20287;-52
2023/04/10 06:15:35;;;;;;;1.70;1.60;;;;;;;5.31;78.69;96084.03;4387635;32;20280;-48
2023/04/10 06:18:00;;;;;;;1.00;1.00;;;;;;;5.23;78.93;96086.25;4387229;32;20208;-53
2023/04/10 06:20:26;;;;;;;2.00;1.90;;;;;;;5.32;79.04;96087.44;4385103;32;20184;-53
2023/04/10 06:22:52;;;;;;;2.30;2.20;;;;;;;5.42;78.86;96085.75;4391300;32;20316;-47
2023/04/10 06:25:17;;;;;;;2.90;2.70;;;;;;;5.56;78.41;96074.91;4370001;32;20251;-50
2023/04/10 06:27:42;;;;;;;2.17;2.07;;;;;;;5.63;78.17;96078.94;4386706;32;20193;-50
2023/04/10 06:30:08;;;;;;;1.83;1.73;;;;;;;5.83;77.56;96078.41;4360968;32;20318;-49
2023/04/10 06:32:33;;;;;;;1.27;1.27;;;;;;;5.93;77.25;96083.84;4367196;32;20180;-51
2023/04/10 06:34:59;;;;;;;1.30;1.30;;;;;;;5.99;76.82;96068.91;4380996;32;20289;-48
2023/04/10 06:37:31;;;;;;;1.80;1.43;;;;;;;6.05;76.33;96067.91;4373928;32;20177;-52
2023/04/10 06:40:06;;;;;;;1.07;1.07;;;;;;;6.13;75.94;96063.00;4367337;32;20223;-50
2023/04/10 06:42:31;;;;;;;2.23;2.07;;;;;;;6.08;76.49;96060.31;4386779;32;20328;-51
2023/04/10 06:44:56;;;;;;;1.43;1.43;;;;;;;6.17;76.59;96058.84;4386493;32;20284;-51
2023/04/10 06:47:22;;;;;;;1.70;1.60;;;;;;;6.30;75.92;96057.66;4367487;32;20267;-49
2023/04/10 06:49:47;;;;;;;1.40;1.30;;;;;;;6.43;75.12;96059.91;4384411;32;20183;-50
2023/04/10 06:52:13;;;;;;;1.50;1.50;;;;;;;6.53;75.03;96051.31;4373494;32;20242;-50
2023/04/10 06:54:38;;;;;;;1.20;1.20;;;;;;;6.73;74.04;96053.31;4370610;32;20177;-45
2023/04/10 06:57:03;;;;;;;2.20;2.10;;;;;;;6.74;74.28;96044.38;4385919;32;20199;-49
2023/04/10 06:59:28;;;;;;;1.00;1.00;;;;;;;6.86;73.39;96050.25;4370397;32;20188;-51
2023/04/10 07:01:54;;;;;;;2.83;1.47;;;;;;;7.00;73.20;96051.44;4372236;32;20198;-51
2023/04/10 07:04:19;;;;;;;0.90;0.90;;;;;;;6.86;72.58;96048.41;4388141;32;20189;-51
2023/04/10 07:06:45;;;;;;;1.70;1.60;;;;;;;6.80;73.69;96052.09;4371581;32;20258;-52
2023/04/10 07:09:10;;;;;;;2.17;2.07;;;;;;;6.97;72.87;96051.16;4369025;32;20239;-53
2023/04/10 07:11:35;;;;;;;2.53;2.33;;;;;;;7.08;72.91;96039.63;4388413;32;20177;-54
2023/04/10 07:14:01;;;;;;;1.47;1.47;;;;;;;7.08;72.64;96048.31;4383901;32;20215;-53
2023/04/10 07:16:28;;;;;;;1.90;1.80;;;;;;;7.14;73.30;96052.59;4383426;32;20193;-48
2023/04/10 07:18:53;;;;;;;1.70;1.63;;;;;;;7.26;71.52;96051.63;4377833;32;20200;-50
2023/04/10 07:21:18;;;;;;;1.77;1.67;;;;;;;7.27;71.41;96045.31;4385200;32;20307;-51
2023/04/10 07:23:44;;;;;;;2.17;2.07;;;;;;;7.19;71.99;96046.56;4372730;32;20188;-48
2023/04/10 07:26:09;;;;;;;2.37;2.27;;;;;;;7.24;72.01;96047.41;4383968;32;20184;-52
2023/04/10 07:28:35;;;;;;;2.10;2.00;;;;;;;7.41;72.08;96041.97;4384772;32;20220;-55
2023/04/10 07:31:00;;;;;;;1.13;1.13;;;;;;;7.65;70.30;96047.66;4375864;32;20177;-49
2023/04/10 07:33:26;;;;;;;1.73;1.63;;;;;;;7.74;69.96;96042.66;4379921;32;20188;-50
2023/04/10 07:35:52;;;;;;;2.47;2.37;;;;;;;7.78;69.45;96049.03;4375045;32;20237;-51
2023/04/10 07:38:17;;;;;;;1.27;1.27;;;;;;;7.74;70.39;96051.38;4381597;32;20181;-50
2023/04/10 07:40:43;;;;;;;1.40;1.20;;;;;;;7.81;69.84;96046.66;4388870;32;20184;-52
2023/04/10 07:43:08;;;;;;;2.00;1.90;;;;;;;7.96;68.95;96051.22;4390284;32;20192;-47
2023/04/10 07:45:34;;;;;;;1.73;1.57;;;;;;;8.13;67.87;96048.34;4369606;32;20180;-53
2023/04/10 07:47:59;;;;;;;2.23;2.13;;;;;;;8.21;66.51;96039.94;4381134;32;20188;-49
2023/04/10 07:50:24;;;;;;;1.83;1.73;;;;;;;8.23;66.00;96043.13;4375973;32;20189;-52
2023/04/10 07:52:50;;;;;;;1.40;1.37;;;;;;;8.44;66.16;96041.34;4365960;32;20232;-55
2023/04/10 07:55:15;;;;;;;1.57;1.43;;;;;;;8.46;67.27;96047.97;4385556;32;20227;-59
2023/04/10 07:57:40;;;;;;;3.27;1.87;;;;;;;8.54;65.92;96039.50;4389457;32;20222;-59
2023/04/10 08:00:06;;;;;;;1.17;1.17;;;;;;;8.66;64.89;96041.91;4380607;32;20181;-59
2023/04/10 08:02:31;;;;;;;1.57;1.50;;;;;;;8.72;64.39;96046.16;4383554;32;20231;-59
2023/04/10 08:04:57;;;;;;;2.00;1.90;;;;;;;8.80;64.00;96042.97;4383244;32;20219;-59
2023/04/10 08:07:22;;;;;;;1.33;1.30;;;;;;;8.95;62.20;96040.34;4369545;32;20301;-59
2023/04/10 08:09:47;;;;;;;2.77;1.63;;;;;;;8.93;63.32;96037.19;4379595;32;20241;-59
2023/04/10 08:12:13;;;;;;;1.10;1.10;;;;;;;8.84;63.59;96032.66;4372837;32;20196;-59
2023/04/10 08:14:38;;;;;;;2.50;2.00;;;;;;;9.01;62.82;96037.69;4382228;32;20199;-59
2023/04/10 08:17:04;;;;;;;1.70;1.60;;;;;;;9.22;62.90;96039.25;4384083;32;20256;-59
2023/04/10 08:19:29;;;;;;;1.80;1.70;;;;;;;9.40;62.25;96035.28;4387206;32;20177;-59
2023/04/10 08:21:54;;;;;;;1.90;1.80;;;;;;;9.45;61.42;96036.06;4389909;32;20199;-58
2023/04/10 08:24:21;;;;;;;1.70;1.70;;;;;;;9.52;61.42;96039.22;4377108;32;20192;-58
2023/04/10 08:26:47;;;;;;;1.60;1.50;;;;;;;9.58;61.56;96029.41;4384744;32;20220;-58
2023/04/10 08:29:12;;;;;;;1.10;1.10;;;;;;;9.64;61.32;96034.41;4377067;32;20203;-58
2023/04/10 08:31:38;;;;;;;1.53;1.43;;;;;;;9.54;60.47;96037.13;4379287;32;20184;-58
2023/04/10 08:34:03;;;;;;;1.40;1.40;;;;;;;9.62;60.01;96036.53;4389907;32;20208;-59
2023/04/10 08:36:30;;;;;;;1.17;1.13;;;;;;;9.61;59.86;96036.81;4374714;32;20188;-58
2023/04/10 08:38:55;;;;;;;1.43;1.33;;;;;;;9.78;58.06;96039.13;4384926;32;20198;-58
2023/04/10 08:41:21;;;;;;;1.63;1.53;;;;;;;9.90;57.84;96029.03;4382970;32;20192;-58
2023/04/10 08:43:48;;;;;;;1.63;1.53;;;;;;;9.86;57.81;96025.34;4370185;32;20214;-58
2023/04/10 08:46:13;;;;;;;1.00;1.00;;;;;;;9.98;57.34;96020.50;4387013;32;20207;-58
2023/04/10 08:48:54;;;;;;;1.00;1.00;;;;;;;9.91;58.94;96030.63;4371355;32;20215;-58
2023/04/10 08:51:21;;;;;;;2.07;1.67;;;;;;;10.11;58.12;96030.56;4382533;32;20195;-58
2023/04/10 08:53:50;;;;;;;1.43;1.43;;;;;;;10.15;57.71;96025.50;4384804;32;20191;-58
2023/04/10 08:56:17;;;;;;;1.83;1.77;;;;;;;10.20;58.23;96028.13;4373744;32;20232;-58
2023/04/10 08:58:43;;;;;;;4.23;2.47;;;;;;;10.21;57.67;96035.03;4389494;32;20199;-58
2023/04/10 09:01:12;;;;;;;1.53;1.53;;;;;;;10.22;57.04;96032.09;4369349;32;20184;-58
2023/04/10 09:03:37;;;;;;;1.00;1.00;;;;;;;10.24;56.66;96024.66;4354959;32;20189;-59
2023/04/10 09:06:04;;;;;;;1.70;1.60;;;;;;;10.25;56.31;96026.25;4383565;32;20185;-58
2023/04/10 09:08:30;;;;;;;1.13;1.03;;;;;;;10.50;56.37;96029.84;4390139;32;20192;-58
2023/04/10 09:10:56;;;;;;;1.57;1.47;;;;;;;10.50;55.83;96029.84;4388973;32;20184;-58
2023/04/10 09:13:42;;;;;;;1.80;1.70;;;;;;;10.56;55.71;96031.41;4369440;32;20238;-58
2023/04/10 09:16:09;;;;;;;1.10;1.10;;;;;;;10.72;53.47;96022.25;4378925;32;20201;-58
2023/04/10 09:18:46;;;;;;;0.77;0.77;;;;;;;10.71;54.02;96020.69;4386016;32;20199;-58
2023/04/10 09:21:15;;;;;;;1.17;1.17;;;;;;;10.63;54.73;96021.25;4388135;32;20254;-58
2023/04/10 09:23:43;;;;;;;2.63;1.70;;;;;;;10.60;55.80;96017.28;4377957;32;20203;-58
2023/04/10 09:26:30;;;;;;;2.20;1.77;;;;;;;10.70;56.28;96013.00;4369651;32;20204;-58
2023/04/10 09:29:04;;;;;;;1.63;1.53;;;;;;;10.76;55.89;96012.69;4382005;32;20203;-58
2023/04/10 09:31:36;;;;;;;1.40;1.40;;;;;;;11.00;54.74;96008.25;4383725;32;20188;-58
2023/04/10 09:34:10;;;;;;;1.37;1.37;;;;;;;10.99;54.38;96004.00;4386156;32;20195;-58
2023/04/10 09:36:36;;;;;;;1.90;1.80;;;;;;;11.05;53.53;95995.97;4387249;32;20299;-58
2023/04/10 09:39:02;;;;;;;1.00;1.00;;;;;;;11.05;54.64;96001.28;4378608;32;20308;-58
2023/04/10 09:41:28;;;;;;;1.80;1.67;;;;;;;11.19;53.26;95986.31;4379476;32;20218;-58
2023/04/10 09:44:07;;;;;;;0.97;0.97;;;;;;;11.19;53.32;95986.31;4387130;32;20272;-58
2023/04/10 09:46:33;;;;;;;2.00;1.90;;;;;;;11.36;52.79;95994.63;4380260;32;20208;-58
2023/04/10 09:49:03;;;;;;;1.60;1.60;;;;;;;11.38;52.37;95989.03;4388625;32;20225;-58
2023/04/10 09:51:33;;;;;;;1.67;1.57;;;;;;;11.31;52.72;95978.75;4371087;32;20195;-58
2023/04/10 09:53:59;;;;;;;1.70;1.70;;;;;;;11.34;52.97;95972.88;4383005;32;20261;-58
2023/04/10 09:56:26;;;;;;;1.57;1.17;;;;;;;11.43;51.81;95971.16;4386296;32;20180;-58
2023/04/10 09:58:55;;;;;;;0.57;0.57;;;;;;;11.42;51.60;95969.63;4383649;32;20199;-58
2023/04/10 10:01:21;;;;;;;0.93;0.93;;;;;;;11.47;51.66;95972.19;4370089;32;20269;-58
2023/04/10 10:03:46;;;;;;;1.57;1.47;;;;;;;11.55;50.88;95971.59;4384482;32;20192;-59
2023/04/10 10:06:12;;;;;;;1.60;1.23;;;;;;;11.59;50.78;95964.62;4383057;32;20217;-58
2023/04/10 10:08:38;;;;;;;0.93;0.93;;;;;;;11.70;49.97;95955.44;4372888;32;20201;-58
2023/04/10 10:11:08;;;;;;;0.97;0.97;;;;;;;11.81;50.05;95955.38;4389342;32;20202;-58
2023/04/10 10:13:53;;;;;;;1.07;1.07;;;;;;;11.84;50.02;95950.28;4382847;32;20219;-59
2023/04/10 10:16:33;;;;;;;0.93;0.93;;;;;;;11.96;49.57;95941.88;4377541;32;20180;-58
2023/04/10 10:19:25;;;;;;;1.37;1.17;;;;;;;11.95;48.58;95950.94;4368722;32;20188;-58
2023/04/10 10:21:54;;;;;;;2.07;1.73;;;;;;;11.83;49.34;95937.28;4385184;32;20193;-58
2023/04/10 10:24:23;;;;;;;2.87;1.57;;;;;;;11.81;48.87;95934.91;4383818;32;20223;-58
2023/04/10 10:26:49;;;;;;;1.37;1.37;;;;;;;11.85;49.20;95940.41;4375157;32;20185;-59
2023/04/10 10:29:16;;;;;;;1.27;1.23;;;;;;;12.07;48.04;95926.56;4373264;32;20189;-58
2023/04/10 10:31:41;;;;;;;0.77;0.77;;;;;;;12.09;48.69;95935.84;4384270;32;20192;-58
2023/04/10 10:34:08;;;;;;;0.80;0.80;;;;;;;12.09;47.89;95925.19;4370599;32;20199;-58
2023/04/10 10:36:38;;;;;;;1.93;1.80;;;;;;;12.02;48.32;95925.56;4384245;32;20244;-58
2023/04/10 10:39:22;;;;;;;3.40;3.20;;;;;;;12.08;47.76;95915.63;4380677;32;20188;-58
2023/04/10 10:41:58;;;;;;;1.77;1.67;;;;;;;12.04;47.93;95910.13;4368369;32;20200;-58
2023/04/10 10:44:47;;;;;;;1.00;1.00;;;;;;;12.13;48.77;95918.22;4377140;32;20192;-58
2023/04/10 10:47:17;;;;;;;1.43;1.33;;;;;;;12.03;48.26;95900.56;4373658;32;20216;-58
2023/04/10 10:49:57;;;;;;;1.00;1.00;;;;;;;12.04;48.49;95906.69;4372245;32;20176;-58
2023/04/10 10:52:42;;;;;;;2.10;1.07;;;;;;;12.16;47.95;95904.38;4382721;32;20252;-58
2023/04/10 10:55:33;;;;;;;1.70;1.53;;;;;;;12.29;46.60;95900.16;4374793;32;20218;-58
2023/04/10 10:58:01;;;;;;;1.03;1.03;;;;;;;12.33;46.37;95901.97;4381536;32;20173;-58
2023/04/10 11:00:48;;;;;;;0.90;0.90;;;;;;;12.41;46.73;95891.75;4381349;32;20208;-58
2023/04/10 11:03:14;;;;;;;0.57;0.57;;;;;;;12.50;45.31;95890.00;4389216;32;20192;-58
2023/04/10 11:06:11;;;;;;;0.80;0.80;;;;;;;12.41;44.22;95881.91;4378815;32;20233;-58
2023/04/10 11:08:46;;;;;;;0.77;0.77;;;;;;;12.52;43.68;95885.19;4377427;32;20240;-58
2023/04/10 11:11:17;;;;;;;1.03;1.03;;;;;;;12.51;45.04;95878.28;4385111;32;20190;-58
2023/04/10 11:13:51;;;;;;;4.00;1.50;;;;;;;12.49;44.78;95875.91;4377999;32;20270;-58
2023/04/10 11:16:18;;;;;;;1.13;1.13;;;;;;;12.61;43.10;95872.81;4375918;32;20230;-59
2023/04/10 11:18:43;;;;;;;0.67;0.67;;;;;;;12.71;44.33;95862.75;4379394;32;20189;-58
2023/04/10 11:21:10;;;;;;;0.83;0.83;;;;;;;12.84;43.25;95863.88;4382561;32;20199;-58
2023/04/10 11:23:37;;;;;;;1.03;1.03;;;;;;;12.73;43.61;95855.25;4385904;32;20228;-59
2023/04/10 11:26:03;;;;;;;0.70;0.70;;;;;;;12.63;43.36;95865.31;4376238;32;20192;-58
2023/04/10 11:28:32;;;;;;;0.40;0.40;;;;;;;12.68;43.42;95858.00;4361812;32;20176;-58
2023/04/10 11:31:13;;;;;;;0.63;0.63;;;;;;;12.72;41.09;95856.34;4359750;32;20199;-59
2023/04/10 11:33:39;;;;;;;0.70;0.70;;;;;;;12.61;41.13;95851.50;4373293;32;20216;-58
2023/04/10 11:36:06;;;;;;;0.67;0.67;;;;;;;12.79;41.82;95841.88;4374872;32;20198;-59
2023/04/10 11:38:31;;;;;;;1.40;1.33;;;;;;;12.98;40.90;95850.56;4388076;32;20185;-58
2023/04/10 11:41:03;;;;;;;1.13;1.13;;;;;;;12.80;40.65;95844.25;4367760;32;20181;-58